PWSweather.com
Personal Weather Stations
Station Observations
ITROMSHA6
HarstadNO 9407

HarstadNO 9407

Lat: 68.7814767, Lon: 16.5297091

Elevation: 145

Station Type: Davis Vantage Pro2

High Low Average
Temperature 53.2°F11.8°C 40.6°F4.8°C 46.2°F7.9°C
Dew Point 48.6°F9.2°C 38.8°F3.8°C 43.5°F6.4°C
Winds 7.0 mph 11.3 kmh Calm Calm 3.0 mph SSW4.8 kmh SSW
Wind Gusts 8.0 mph12.9 kmh -- 1.0 mph1.6 kmh
Humidity 97% 82% 90%
Pressure 29.95 in1014.2 mb 29.80 in1009.1 mb -
Precipitation 0.01 in0.3 mm - -
Hour Temp Dew Point Humidity Winds Wind Gusts Pressure Precip Precip Rate Daily Precip Total
12:00 AM 47.8°F8.8°C 46.2°F7.9°C 94% 4.0 mph WNW6.4 kmh WNW 5.0 mph8.0 kmh 29.95 in1014.2 mb 0.00 in0.0 mm 0.00 in0.0 mm 0.00 in0.0 mm
12:05 AM 47.6°F8.7°C 46.0°F7.8°C 94% 4.0 mph WNW6.4 kmh WNW -- 29.95 in1014.2 mb 0.00 in0.0 mm 0.00 in0.0 mm 0.00 in0.0 mm
12:10 AM 47.7°F8.7°C 46.0°F7.8°C 94% 4.0 mph W6.4 kmh W -- 29.95 in1014.2 mb 0.00 in0.0 mm 0.00 in0.0 mm 0.00 in0.0 mm
12:15 AM 47.7°F8.7°C 46.0°F7.8°C 94% 3.0 mph W4.8 kmh W -- 29.95 in1014.2 mb 0.00 in0.0 mm 0.00 in0.0 mm 0.00 in0.0 mm
12:20 AM 47.7°F8.7°C 46.0°F7.8°C 94% 3.0 mph W4.8 kmh W -- 29.95 in1014.2 mb 0.00 in0.0 mm 0.00 in0.0 mm 0.00 in0.0 mm
12:25 AM 47.6°F8.7°C 46.0°F7.8°C 94% 2.0 mph W3.2 kmh W 5.0 mph8.0 kmh 29.95 in1014.2 mb 0.00 in0.0 mm 0.00 in0.0 mm 0.00 in0.0 mm
12:30 AM 47.4°F8.6°C 45.9°F7.7°C 94% 3.0 mph W4.8 kmh W -- 29.95 in1014.2 mb 0.00 in0.0 mm 0.00 in0.0 mm 0.00 in0.0 mm
12:35 AM 46.8°F8.2°C 45.1°F7.3°C 94% 3.0 mph WSW4.8 kmh WSW -- 29.95 in1014.2 mb 0.00 in0.0 mm 0.00 in0.0 mm 0.00 in0.0 mm
12:40 AM 46.9°F8.3°C 45.5°F7.5°C 95% 4.0 mph WSW6.4 kmh WSW -- 29.95 in1014.2 mb 0.00 in0.0 mm 0.00 in0.0 mm 0.00 in0.0 mm
12:45 AM 46.8°F8.2°C 45.1°F7.3°C 94% 2.0 mph WSW3.2 kmh WSW -- 29.95 in1014.2 mb 0.00 in0.0 mm 0.00 in0.0 mm 0.00 in0.0 mm
12:50 AM 46.3°F7.9°C 44.6°F7.0°C 94% 4.0 mph WSW6.4 kmh WSW 5.0 mph8.0 kmh 29.95 in1014.2 mb 0.00 in0.0 mm 0.00 in0.0 mm 0.00 in0.0 mm
12:55 AM 46.2°F7.9°C 44.6°F7.0°C 94% 4.0 mph WSW6.4 kmh WSW -- 29.95 in1014.2 mb 0.00 in0.0 mm 0.00 in0.0 mm 0.00 in0.0 mm
01:00 AM 45.9°F7.7°C 44.2°F6.8°C 94% 4.0 mph WSW6.4 kmh WSW -- 29.95 in1014.2 mb 0.00 in0.0 mm 0.00 in0.0 mm 0.00 in0.0 mm
01:05 AM 45.5°F7.5°C 43.9°F6.6°C 94% 3.0 mph WSW4.8 kmh WSW -- 29.95 in1014.2 mb 0.00 in0.0 mm 0.00 in0.0 mm 0.00 in0.0 mm
01:10 AM 45.3°F7.4°C 44.1°F6.7°C 95% 4.0 mph W6.4 kmh W -- 29.95 in1014.2 mb 0.00 in0.0 mm 0.00 in0.0 mm 0.00 in0.0 mm
01:15 AM 45.3°F7.4°C 44.1°F6.7°C 95% 4.0 mph W6.4 kmh W 7.0 mph11.3 kmh 29.95 in1014.2 mb 0.00 in0.0 mm 0.00 in0.0 mm 0.00 in0.0 mm
01:20 AM 45.0°F7.2°C 43.7°F6.5°C 95% 4.0 mph W6.4 kmh W -- 29.95 in1014.2 mb 0.00 in0.0 mm 0.00 in0.0 mm 0.00 in0.0 mm
01:25 AM 45.1°F7.3°C 43.9°F6.6°C 95% 4.0 mph WSW6.4 kmh WSW -- 29.95 in1014.2 mb 0.00 in0.0 mm 0.00 in0.0 mm 0.00 in0.0 mm
01:30 AM 44.8°F7.1°C 43.5°F6.4°C 95% 3.0 mph WSW4.8 kmh WSW -- 29.95 in1014.2 mb 0.00 in0.0 mm 0.00 in0.0 mm 0.00 in0.0 mm
01:35 AM 44.9°F7.2°C 43.7°F6.5°C 95% 5.0 mph W8.0 kmh W -- 29.94 in1013.9 mb 0.00 in0.0 mm 0.00 in0.0 mm 0.00 in0.0 mm
01:40 AM 45.2°F7.3°C 43.9°F6.6°C 95% 6.0 mph W9.7 kmh W 7.0 mph11.3 kmh 29.94 in1013.9 mb 0.00 in0.0 mm 0.00 in0.0 mm 0.00 in0.0 mm
01:45 AM 45.3°F7.4°C 44.1°F6.7°C 95% 4.0 mph W6.4 kmh W -- 29.94 in1013.9 mb 0.00 in0.0 mm 0.00 in0.0 mm 0.00 in0.0 mm
01:50 AM 45.8°F7.7°C 44.4°F6.9°C 95% 3.0 mph W4.8 kmh W -- 29.94 in1013.9 mb 0.00 in0.0 mm 0.00 in0.0 mm 0.00 in0.0 mm
01:55 AM 45.7°F7.6°C 44.4°F6.9°C 95% 4.0 mph W6.4 kmh W -- 29.94 in1013.9 mb 0.00 in0.0 mm 0.00 in0.0 mm 0.00 in0.0 mm
02:00 AM 45.8°F7.7°C 44.4°F6.9°C 95% 3.0 mph W4.8 kmh W -- 29.94 in1013.9 mb 0.00 in0.0 mm 0.00 in0.0 mm 0.00 in0.0 mm
02:05 AM 45.6°F7.6°C 44.4°F6.9°C 95% 4.0 mph WSW6.4 kmh WSW 6.0 mph9.7 kmh 29.94 in1013.9 mb 0.00 in0.0 mm 0.00 in0.0 mm 0.00 in0.0 mm
02:10 AM 45.3°F7.4°C 44.1°F6.7°C 95% 4.0 mph WSW6.4 kmh WSW -- 29.94 in1013.9 mb 0.00 in0.0 mm 0.00 in0.0 mm 0.00 in0.0 mm
02:15 AM 45.1°F7.3°C 43.9°F6.6°C 95% 3.0 mph W4.8 kmh W -- 29.94 in1013.9 mb 0.00 in0.0 mm 0.00 in0.0 mm 0.00 in0.0 mm
02:20 AM 45.1°F7.3°C 43.9°F6.6°C 95% 5.0 mph WSW8.0 kmh WSW -- 29.94 in1013.9 mb 0.00 in0.0 mm 0.00 in0.0 mm 0.00 in0.0 mm
02:25 AM 45.0°F7.2°C 43.7°F6.5°C 95% 3.0 mph WSW4.8 kmh WSW -- 29.94 in1013.9 mb 0.00 in0.0 mm 0.00 in0.0 mm 0.00 in0.0 mm
02:30 AM 44.6°F7.0°C 43.3°F6.3°C 95% 3.0 mph WSW4.8 kmh WSW 6.0 mph9.7 kmh 29.94 in1013.9 mb 0.00 in0.0 mm 0.00 in0.0 mm 0.00 in0.0 mm
02:35 AM 44.5°F6.9°C 43.2°F6.2°C 95% 4.0 mph SW6.4 kmh SW -- 29.94 in1013.9 mb 0.00 in0.0 mm 0.00 in0.0 mm 0.00 in0.0 mm
02:40 AM 44.4°F6.9°C 43.2°F6.2°C 95% 4.0 mph WSW6.4 kmh WSW -- 29.93 in1013.5 mb 0.00 in0.0 mm 0.00 in0.0 mm 0.00 in0.0 mm
02:45 AM 44.3°F6.8°C 43.0°F6.1°C 95% 2.0 mph WSW3.2 kmh WSW -- 29.93 in1013.5 mb 0.00 in0.0 mm 0.00 in0.0 mm 0.00 in0.0 mm
02:50 AM 44.4°F6.9°C 43.3°F6.3°C 96% 4.0 mph W6.4 kmh W -- 29.93 in1013.5 mb 0.00 in0.0 mm 0.00 in0.0 mm 0.00 in0.0 mm
02:55 AM 44.8°F7.1°C 43.7°F6.5°C 96% 6.0 mph W9.7 kmh W 8.0 mph12.9 kmh 29.93 in1013.5 mb 0.00 in0.0 mm 0.00 in0.0 mm 0.00 in0.0 mm
03:00 AM 44.6°F7.0°C 43.3°F6.3°C 95% 6.0 mph W9.7 kmh W -- 29.93 in1013.5 mb 0.00 in0.0 mm 0.00 in0.0 mm 0.00 in0.0 mm
03:05 AM 44.8°F7.1°C 43.7°F6.5°C 96% 6.0 mph W9.7 kmh W -- 29.93 in1013.5 mb 0.00 in0.0 mm 0.00 in0.0 mm 0.00 in0.0 mm
03:10 AM 44.7°F7.1°C 43.7°F6.5°C 96% 3.0 mph W4.8 kmh W -- 29.93 in1013.5 mb 0.00 in0.0 mm 0.00 in0.0 mm 0.00 in0.0 mm
03:15 AM 44.8°F7.1°C 43.7°F6.5°C 96% 4.0 mph WSW6.4 kmh WSW -- 29.93 in1013.5 mb 0.00 in0.0 mm 0.00 in0.0 mm 0.00 in0.0 mm
03:20 AM 44.7°F7.1°C 43.7°F6.5°C 96% 7.0 mph W11.3 kmh W 8.0 mph12.9 kmh 29.93 in1013.5 mb 0.00 in0.0 mm 0.00 in0.0 mm 0.00 in0.0 mm
03:25 AM 44.7°F7.1°C 43.7°F6.5°C 96% 4.0 mph W6.4 kmh W -- 29.93 in1013.5 mb 0.00 in0.0 mm 0.00 in0.0 mm 0.00 in0.0 mm
03:30 AM 44.8°F7.1°C 43.7°F6.5°C 96% 5.0 mph W8.0 kmh W -- 29.93 in1013.5 mb 0.00 in0.0 mm 0.00 in0.0 mm 0.00 in0.0 mm
03:35 AM 44.9°F7.2°C 43.9°F6.6°C 96% 5.0 mph W8.0 kmh W -- 29.93 in1013.5 mb 0.00 in0.0 mm 0.00 in0.0 mm 0.00 in0.0 mm
03:40 AM 45.2°F7.3°C 44.1°F6.7°C 96% 4.0 mph WSW6.4 kmh WSW -- 29.93 in1013.5 mb 0.00 in0.0 mm 0.00 in0.0 mm 0.00 in0.0 mm
03:45 AM 45.1°F7.3°C 43.9°F6.6°C 95% 5.0 mph WSW8.0 kmh WSW 7.0 mph11.3 kmh 29.93 in1013.5 mb 0.00 in0.0 mm 0.00 in0.0 mm 0.00 in0.0 mm
03:50 AM 45.0°F7.2°C 43.7°F6.5°C 95% 5.0 mph W8.0 kmh W -- 29.93 in1013.5 mb 0.00 in0.0 mm 0.00 in0.0 mm 0.00 in0.0 mm
03:55 AM 44.9°F7.2°C 43.7°F6.5°C 95% 4.0 mph W6.4 kmh W -- 29.93 in1013.5 mb 0.00 in0.0 mm 0.00 in0.0 mm 0.00 in0.0 mm
04:00 AM 44.9°F7.2°C 43.9°F6.6°C 96% 5.0 mph W8.0 kmh W -- 29.93 in1013.5 mb 0.00 in0.0 mm 0.00 in0.0 mm 0.00 in0.0 mm
04:05 AM 44.7°F7.1°C 43.5°F6.4°C 95% 4.0 mph WSW6.4 kmh WSW -- 29.93 in1013.5 mb 0.00 in0.0 mm 0.00 in0.0 mm 0.00 in0.0 mm
04:10 AM 44.5°F6.9°C 43.2°F6.2°C 95% 4.0 mph WSW6.4 kmh WSW 7.0 mph11.3 kmh 29.93 in1013.5 mb 0.00 in0.0 mm 0.00 in0.0 mm 0.00 in0.0 mm
04:15 AM 44.2°F6.8°C 43.0°F6.1°C 95% 4.0 mph W6.4 kmh W -- 29.92 in1013.2 mb 0.00 in0.0 mm 0.00 in0.0 mm 0.00 in0.0 mm
04:20 AM 43.8°F6.6°C 42.6°F5.9°C 95% 3.0 mph WSW4.8 kmh WSW -- 29.92 in1013.2 mb 0.00 in0.0 mm 0.00 in0.0 mm 0.00 in0.0 mm
04:25 AM 43.4°F6.3°C 42.1°F5.6°C 95% 4.0 mph W6.4 kmh W -- 29.92 in1013.2 mb 0.00 in0.0 mm 0.00 in0.0 mm 0.00 in0.0 mm
04:30 AM 43.2°F6.2°C 41.9°F5.5°C 95% 3.0 mph SW4.8 kmh SW -- 29.92 in1013.2 mb 0.00 in0.0 mm 0.00 in0.0 mm 0.00 in0.0 mm
04:35 AM 42.8°F6.0°C 41.5°F5.3°C 95% 4.0 mph SW6.4 kmh SW 8.0 mph12.9 kmh 29.92 in1013.2 mb 0.00 in0.0 mm 0.00 in0.0 mm 0.00 in0.0 mm
04:40 AM 42.6°F5.9°C 41.4°F5.2°C 95% 5.0 mph SW8.0 kmh SW -- 29.92 in1013.2 mb 0.00 in0.0 mm 0.00 in0.0 mm 0.00 in0.0 mm
04:45 AM 42.4°F5.8°C 41.2°F5.1°C 95% 4.0 mph W6.4 kmh W -- 29.92 in1013.2 mb 0.00 in0.0 mm 0.00 in0.0 mm 0.00 in0.0 mm
04:50 AM 42.2°F5.7°C 41.2°F5.1°C 96% 3.0 mph WSW4.8 kmh WSW -- 29.91 in1012.9 mb 0.00 in0.0 mm 0.00 in0.0 mm 0.00 in0.0 mm
04:55 AM 41.9°F5.5°C 40.6°F4.8°C 95% 4.0 mph WSW6.4 kmh WSW -- 29.91 in1012.9 mb 0.00 in0.0 mm 0.00 in0.0 mm 0.00 in0.0 mm
05:00 AM 41.6°F5.3°C 40.3°F4.6°C 95% 4.0 mph WSW6.4 kmh WSW 7.0 mph11.3 kmh 29.91 in1012.9 mb 0.00 in0.0 mm 0.00 in0.0 mm 0.00 in0.0 mm
05:05 AM 41.4°F5.2°C 40.1°F4.5°C 95% 5.0 mph SW8.0 kmh SW -- 29.91 in1012.9 mb 0.00 in0.0 mm 0.00 in0.0 mm 0.00 in0.0 mm
05:10 AM 41.2°F5.1°C 39.9°F4.4°C 95% 5.0 mph WSW8.0 kmh WSW -- 29.91 in1012.9 mb 0.00 in0.0 mm 0.00 in0.0 mm 0.00 in0.0 mm
05:15 AM 41.2°F5.1°C 39.9°F4.4°C 95% 5.0 mph W8.0 kmh W -- 29.91 in1012.9 mb 0.00 in0.0 mm 0.00 in0.0 mm 0.00 in0.0 mm
05:20 AM 41.0°F5.0°C 39.7°F4.3°C 95% 2.0 mph W3.2 kmh W -- 29.91 in1012.9 mb 0.00 in0.0 mm 0.00 in0.0 mm 0.00 in0.0 mm
05:25 AM 41.0°F5.0°C 39.7°F4.3°C 95% 4.0 mph WSW6.4 kmh WSW 7.0 mph11.3 kmh 29.91 in1012.9 mb 0.00 in0.0 mm 0.00 in0.0 mm 0.00 in0.0 mm
05:30 AM 41.1°F5.1°C 39.9°F4.4°C 95% 5.0 mph SW8.0 kmh SW -- 29.91 in1012.9 mb 0.00 in0.0 mm 0.00 in0.0 mm 0.00 in0.0 mm
05:35 AM 40.9°F4.9°C 39.6°F4.2°C 95% 5.0 mph WSW8.0 kmh WSW -- 29.91 in1012.9 mb 0.00 in0.0 mm 0.00 in0.0 mm 0.00 in0.0 mm
05:40 AM 40.8°F4.9°C 39.6°F4.2°C 95% 5.0 mph SW8.0 kmh SW -- 29.91 in1012.9 mb 0.00 in0.0 mm 0.00 in0.0 mm 0.00 in0.0 mm
05:45 AM 40.6°F4.8°C 39.4°F4.1°C 95% 5.0 mph WSW8.0 kmh WSW -- 29.91 in1012.9 mb 0.00 in0.0 mm 0.00 in0.0 mm 0.00 in0.0 mm
05:50 AM 40.7°F4.8°C 39.6°F4.2°C 96% 6.0 mph WSW9.7 kmh WSW 7.0 mph11.3 kmh 29.91 in1012.9 mb 0.00 in0.0 mm 0.00 in0.0 mm 0.00 in0.0 mm
05:55 AM 40.7°F4.8°C 39.4°F4.1°C 95% 6.0 mph WSW9.7 kmh WSW -- 29.91 in1012.9 mb 0.00 in0.0 mm 0.00 in0.0 mm 0.00 in0.0 mm
06:00 AM 40.9°F4.9°C 39.7°F4.3°C 96% 4.0 mph SW6.4 kmh SW -- 29.91 in1012.9 mb 0.00 in0.0 mm 0.00 in0.0 mm 0.00 in0.0 mm
06:05 AM 40.7°F4.8°C 39.6°F4.2°C 96% 5.0 mph WSW8.0 kmh WSW -- 29.91 in1012.9 mb 0.00 in0.0 mm 0.00 in0.0 mm 0.00 in0.0 mm
06:10 AM 40.9°F4.9°C 39.7°F4.3°C 96% 4.0 mph WSW6.4 kmh WSW -- 29.90 in1012.5 mb 0.00 in0.0 mm 0.00 in0.0 mm 0.00 in0.0 mm
06:15 AM 40.6°F4.8°C 39.4°F4.1°C 95% 5.0 mph WSW8.0 kmh WSW 7.0 mph11.3 kmh 29.90 in1012.5 mb 0.00 in0.0 mm 0.00 in0.0 mm 0.00 in0.0 mm
06:20 AM 41.1°F5.1°C 40.1°F4.5°C 96% 5.0 mph WSW8.0 kmh WSW -- 29.90 in1012.5 mb 0.00 in0.0 mm 0.00 in0.0 mm 0.00 in0.0 mm
06:25 AM 41.0°F5.0°C 39.7°F4.3°C 95% 4.0 mph WSW6.4 kmh WSW -- 29.90 in1012.5 mb 0.00 in0.0 mm 0.00 in0.0 mm 0.00 in0.0 mm
06:30 AM 40.7°F4.8°C 39.4°F4.1°C 95% 5.0 mph WSW8.0 kmh WSW -- 29.90 in1012.5 mb 0.00 in0.0 mm 0.00 in0.0 mm 0.00 in0.0 mm
06:35 AM 41.0°F5.0°C 39.9°F4.4°C 96% 2.0 mph W3.2 kmh W -- 29.90 in1012.5 mb 0.00 in0.0 mm 0.00 in0.0 mm 0.00 in0.0 mm
06:40 AM 40.8°F4.9°C 39.6°F4.2°C 95% 4.0 mph WSW6.4 kmh WSW 6.0 mph9.7 kmh 29.90 in1012.5 mb 0.00 in0.0 mm 0.00 in0.0 mm 0.00 in0.0 mm
06:45 AM 40.7°F4.8°C 39.4°F4.1°C 95% 4.0 mph WSW6.4 kmh WSW -- 29.90 in1012.5 mb 0.00 in0.0 mm 0.00 in0.0 mm 0.00 in0.0 mm
06:50 AM 41.2°F5.1°C 40.1°F4.5°C 96% 3.0 mph WSW4.8 kmh WSW -- 29.90 in1012.5 mb 0.00 in0.0 mm 0.00 in0.0 mm 0.00 in0.0 mm
06:55 AM 41.2°F5.1°C 40.1°F4.5°C 96% 4.0 mph WSW6.4 kmh WSW -- 29.90 in1012.5 mb 0.00 in0.0 mm 0.00 in0.0 mm 0.00 in0.0 mm
07:00 AM 41.3°F5.2°C 40.3°F4.6°C 96% 3.0 mph WSW4.8 kmh WSW -- 29.90 in1012.5 mb 0.00 in0.0 mm 0.00 in0.0 mm 0.00 in0.0 mm
07:05 AM 41.8°F5.4°C 40.6°F4.8°C 96% 3.0 mph WSW4.8 kmh WSW 5.0 mph8.0 kmh 29.90 in1012.5 mb 0.00 in0.0 mm 0.00 in0.0 mm 0.00 in0.0 mm
07:10 AM 42.2°F5.7°C 41.2°F5.1°C 96% 2.0 mph WSW3.2 kmh WSW -- 29.90 in1012.5 mb 0.00 in0.0 mm 0.00 in0.0 mm 0.00 in0.0 mm
07:15 AM 42.1°F5.6°C 40.8°F4.9°C 95% 4.0 mph WSW6.4 kmh WSW -- 29.90 in1012.5 mb 0.00 in0.0 mm 0.00 in0.0 mm 0.00 in0.0 mm
07:20 AM 42.4°F5.8°C 41.4°F5.2°C 96% 1.0 mph WSW1.6 kmh WSW -- 29.90 in1012.5 mb 0.00 in0.0 mm 0.00 in0.0 mm 0.00 in0.0 mm
07:25 AM 42.3°F5.7°C 41.0°F5.0°C 95% Calm Calm -- 29.90 in1012.5 mb 0.00 in0.0 mm 0.00 in0.0 mm 0.00 in0.0 mm
07:30 AM 42.3°F5.7°C 41.0°F5.0°C 95% 2.0 mph WSW3.2 kmh WSW 2.0 mph3.2 kmh 29.90 in1012.5 mb 0.00 in0.0 mm 0.00 in0.0 mm 0.00 in0.0 mm
07:35 AM 42.4°F5.8°C 41.4°F5.2°C 96% 1.0 mph WSW1.6 kmh WSW -- 29.90 in1012.5 mb 0.00 in0.0 mm 0.00 in0.0 mm 0.00 in0.0 mm
07:40 AM 42.4°F5.8°C 41.2°F5.1°C 95% Calm Calm -- 29.89 in1012.2 mb 0.00 in0.0 mm 0.00 in0.0 mm 0.00 in0.0 mm
07:45 AM 42.5°F5.8°C 41.2°F5.1°C 95% Calm Calm -- 29.90 in1012.5 mb 0.00 in0.0 mm 0.00 in0.0 mm 0.00 in0.0 mm
07:50 AM 42.7°F5.9°C 41.5°F5.3°C 96% Calm Calm -- 29.90 in1012.5 mb 0.00 in0.0 mm 0.00 in0.0 mm 0.00 in0.0 mm
07:55 AM 42.8°F6.0°C 41.5°F5.3°C 95% 1.0 mph WSW1.6 kmh WSW 2.0 mph3.2 kmh 29.89 in1012.2 mb 0.00 in0.0 mm 0.00 in0.0 mm 0.00 in0.0 mm
08:00 AM 43.1°F6.2°C 42.1°F5.6°C 96% 2.0 mph WSW3.2 kmh WSW -- 29.89 in1012.2 mb 0.00 in0.0 mm 0.00 in0.0 mm 0.00 in0.0 mm
08:05 AM 43.5°F6.4°C 42.4°F5.8°C 96% 1.0 mph WSW1.6 kmh WSW -- 29.89 in1012.2 mb 0.00 in0.0 mm 0.00 in0.0 mm 0.00 in0.0 mm
08:10 AM 43.6°F6.4°C 42.4°F5.8°C 96% 2.0 mph WSW3.2 kmh WSW -- 29.89 in1012.2 mb 0.00 in0.0 mm 0.00 in0.0 mm 0.00 in0.0 mm
08:15 AM 43.8°F6.6°C 42.8°F6.0°C 96% Calm Calm -- 29.89 in1012.2 mb 0.00 in0.0 mm 0.00 in0.0 mm 0.00 in0.0 mm
08:20 AM 44.1°F6.7°C 43.0°F6.1°C 96% Calm Calm 3.0 mph4.8 kmh 29.89 in1012.2 mb 0.00 in0.0 mm 0.00 in0.0 mm 0.00 in0.0 mm
08:25 AM 44.2°F6.8°C 43.2°F6.2°C 96% Calm Calm -- 29.89 in1012.2 mb 0.00 in0.0 mm 0.00 in0.0 mm 0.00 in0.0 mm
08:30 AM 44.6°F7.0°C 43.5°F6.4°C 96% 1.0 mph WSW1.6 kmh WSW -- 29.89 in1012.2 mb 0.00 in0.0 mm 0.00 in0.0 mm 0.00 in0.0 mm
08:35 AM 44.9°F7.2°C 43.9°F6.6°C 96% Calm Calm -- 29.89 in1012.2 mb 0.00 in0.0 mm 0.00 in0.0 mm 0.00 in0.0 mm
08:40 AM 45.3°F7.4°C 44.2°F6.8°C 96% 1.0 mph WSW1.6 kmh WSW -- 29.88 in1011.9 mb 0.00 in0.0 mm 0.00 in0.0 mm 0.00 in0.0 mm
08:45 AM 45.6°F7.6°C 44.6°F7.0°C 96% 1.0 mph WSW1.6 kmh WSW 2.0 mph3.2 kmh 29.88 in1011.9 mb 0.00 in0.0 mm 0.00 in0.0 mm 0.00 in0.0 mm
08:50 AM 46.1°F7.8°C 45.0°F7.2°C 96% Calm Calm -- 29.88 in1011.9 mb 0.00 in0.0 mm 0.00 in0.0 mm 0.00 in0.0 mm
08:55 AM 47.2°F8.4°C 46.4°F8.0°C 97% Calm Calm -- 29.88 in1011.9 mb 0.00 in0.0 mm 0.00 in0.0 mm 0.00 in0.0 mm
09:00 AM 47.7°F8.7°C 46.6°F8.1°C 96% Calm Calm -- 29.88 in1011.9 mb 0.00 in0.0 mm 0.00 in0.0 mm 0.00 in0.0 mm
09:05 AM 47.9°F8.8°C 46.4°F8.0°C 95% Calm Calm -- 29.87 in1011.5 mb 0.00 in0.0 mm 0.00 in0.0 mm 0.00 in0.0 mm
09:10 AM 48.1°F8.9°C 46.6°F8.1°C 95% Calm Calm 1.0 mph1.6 kmh 29.87 in1011.5 mb 0.01 in0.3 mm 0.12 in3.0 mm 0.01 in0.3 mm
09:15 AM 48.6°F9.2°C 46.9°F8.3°C 94% Calm Calm -- 29.87 in1011.5 mb 0.01 in0.3 mm 0.00 in0.0 mm 0.01 in0.3 mm
09:20 AM 49.3°F9.6°C 47.7°F8.7°C 94% Calm Calm -- 29.87 in1011.5 mb 0.01 in0.3 mm 0.00 in0.0 mm 0.01 in0.3 mm
09:25 AM 49.8°F9.9°C 47.8°F8.8°C 93% Calm Calm -- 29.87 in1011.5 mb 0.01 in0.3 mm 0.00 in0.0 mm 0.01 in0.3 mm
09:30 AM 50.0°F10.0°C 47.5°F8.6°C 91% Calm Calm -- 29.87 in1011.5 mb 0.01 in0.3 mm 0.00 in0.0 mm 0.01 in0.3 mm
09:35 AM 50.3°F10.2°C 47.3°F8.5°C 89% Calm Calm 1.0 mph1.6 kmh 29.87 in1011.5 mb 0.01 in0.3 mm 0.00 in0.0 mm 0.01 in0.3 mm
09:40 AM 50.6°F10.3°C 47.1°F8.4°C 88% Calm Calm -- 29.87 in1011.5 mb 0.01 in0.3 mm 0.00 in0.0 mm 0.01 in0.3 mm
09:45 AM 51.0°F10.6°C 47.7°F8.7°C 88% Calm Calm -- 29.86 in1011.2 mb 0.01 in0.3 mm 0.00 in0.0 mm 0.01 in0.3 mm
09:50 AM 51.2°F10.7°C 46.9°F8.3°C 85% 5.0 mph E8.0 kmh E -- 29.86 in1011.2 mb 0.01 in0.3 mm 0.00 in0.0 mm 0.01 in0.3 mm
09:55 AM 50.6°F10.3°C 45.9°F7.7°C 84% 2.0 mph E3.2 kmh E -- 29.86 in1011.2 mb 0.01 in0.3 mm 0.00 in0.0 mm 0.01 in0.3 mm
10:00 AM 50.7°F10.4°C 46.4°F8.0°C 85% 1.0 mph E1.6 kmh E 5.0 mph8.0 kmh 29.86 in1011.2 mb 0.01 in0.3 mm 0.00 in0.0 mm 0.01 in0.3 mm
10:05 AM 50.7°F10.4°C 46.0°F7.8°C 84% 2.0 mph E3.2 kmh E -- 29.86 in1011.2 mb 0.01 in0.3 mm 0.00 in0.0 mm 0.01 in0.3 mm
10:10 AM 50.5°F10.3°C 45.9°F7.7°C 84% 1.0 mph E1.6 kmh E -- 29.86 in1011.2 mb 0.00 in0.0 mm 0.00 in0.0 mm 0.01 in0.3 mm
10:15 AM 50.4°F10.2°C 46.0°F7.8°C 85% 1.0 mph ESE1.6 kmh ESE -- 29.86 in1011.2 mb 0.00 in0.0 mm 0.00 in0.0 mm 0.01 in0.3 mm
10:20 AM 50.3°F10.2°C 46.0°F7.8°C 85% 1.0 mph E1.6 kmh E -- 29.86 in1011.2 mb 0.00 in0.0 mm 0.00 in0.0 mm 0.01 in0.3 mm
10:25 AM 50.3°F10.2°C 46.0°F7.8°C 85% 1.0 mph E1.6 kmh E 4.0 mph6.4 kmh 29.86 in1011.2 mb 0.00 in0.0 mm 0.00 in0.0 mm 0.01 in0.3 mm
10:30 AM 50.2°F10.1°C 46.2°F7.9°C 86% 4.0 mph E6.4 kmh E -- 29.86 in1011.2 mb 0.00 in0.0 mm 0.00 in0.0 mm 0.01 in0.3 mm
10:35 AM 50.2°F10.1°C 46.2°F7.9°C 86% 1.0 mph E1.6 kmh E -- 29.86 in1011.2 mb 0.00 in0.0 mm 0.00 in0.0 mm 0.01 in0.3 mm
10:40 AM 50.2°F10.1°C 46.2°F7.9°C 86% 1.0 mph E1.6 kmh E -- 29.86 in1011.2 mb 0.00 in0.0 mm 0.00 in0.0 mm 0.01 in0.3 mm
10:45 AM 50.5°F10.3°C 46.2°F7.9°C 85% 1.0 mph E1.6 kmh E -- 29.86 in1011.2 mb 0.00 in0.0 mm 0.00 in0.0 mm 0.01 in0.3 mm
10:50 AM 50.3°F10.2°C 46.0°F7.8°C 85% Calm Calm 5.0 mph8.0 kmh 29.86 in1011.2 mb 0.00 in0.0 mm 0.00 in0.0 mm 0.01 in0.3 mm
10:55 AM 50.4°F10.2°C 46.4°F8.0°C 86% Calm Calm -- 29.86 in1011.2 mb 0.00 in0.0 mm 0.00 in0.0 mm 0.01 in0.3 mm
11:00 AM 50.4°F10.2°C 46.4°F8.0°C 86% 3.0 mph ENE4.8 kmh ENE -- 29.86 in1011.2 mb 0.00 in0.0 mm 0.00 in0.0 mm 0.01 in0.3 mm
11:05 AM 50.2°F10.1°C 46.2°F7.9°C 86% 3.0 mph ENE4.8 kmh ENE -- 29.86 in1011.2 mb 0.00 in0.0 mm 0.00 in0.0 mm 0.01 in0.3 mm
11:10 AM 50.3°F10.2°C 46.6°F8.1°C 87% 1.0 mph ENE1.6 kmh ENE -- 29.86 in1011.2 mb 0.00 in0.0 mm 0.00 in0.0 mm 0.01 in0.3 mm
11:15 AM 50.3°F10.2°C 46.6°F8.1°C 87% 3.0 mph ENE4.8 kmh ENE 5.0 mph8.0 kmh 29.86 in1011.2 mb 0.00 in0.0 mm 0.00 in0.0 mm 0.01 in0.3 mm
11:20 AM 50.3°F10.2°C 46.9°F8.3°C 88% 2.0 mph ENE3.2 kmh ENE -- 29.86 in1011.2 mb 0.00 in0.0 mm 0.00 in0.0 mm 0.01 in0.3 mm
11:25 AM 50.3°F10.2°C 46.6°F8.1°C 87% 2.0 mph ENE3.2 kmh ENE -- 29.86 in1011.2 mb 0.00 in0.0 mm 0.00 in0.0 mm 0.01 in0.3 mm
11:30 AM 50.3°F10.2°C 46.9°F8.3°C 88% 1.0 mph ENE1.6 kmh ENE -- 29.86 in1011.2 mb 0.00 in0.0 mm 0.00 in0.0 mm 0.01 in0.3 mm
11:35 AM 50.3°F10.2°C 46.6°F8.1°C 87% 1.0 mph ENE1.6 kmh ENE -- 29.86 in1011.2 mb 0.00 in0.0 mm 0.00 in0.0 mm 0.01 in0.3 mm
11:40 AM 50.7°F10.4°C 46.8°F8.2°C 86% 5.0 mph SSE8.0 kmh SSE 6.0 mph9.7 kmh 29.86 in1011.2 mb 0.00 in0.0 mm 0.00 in0.0 mm 0.01 in0.3 mm
11:45 AM 51.2°F10.7°C 46.9°F8.3°C 85% Calm Calm -- 29.86 in1011.2 mb 0.00 in0.0 mm 0.00 in0.0 mm 0.01 in0.3 mm
11:50 AM 51.4°F10.8°C 46.8°F8.2°C 84% 2.0 mph SE3.2 kmh SE -- 29.86 in1011.2 mb 0.00 in0.0 mm 0.00 in0.0 mm 0.01 in0.3 mm
11:55 AM 51.2°F10.7°C 46.6°F8.1°C 84% Calm Calm -- 29.86 in1011.2 mb 0.00 in0.0 mm 0.00 in0.0 mm 0.01 in0.3 mm
12:00 PM 51.3°F10.7°C 46.6°F8.1°C 84% 4.0 mph ESE6.4 kmh ESE -- 29.86 in1011.2 mb 0.00 in0.0 mm 0.00 in0.0 mm 0.01 in0.3 mm
12:05 PM 51.3°F10.7°C 46.9°F8.3°C 85% Calm Calm 4.0 mph6.4 kmh 29.86 in1011.2 mb 0.00 in0.0 mm 0.00 in0.0 mm 0.01 in0.3 mm
12:10 PM 51.4°F10.8°C 47.1°F8.4°C 85% 1.0 mph ESE1.6 kmh ESE -- 29.86 in1011.2 mb 0.00 in0.0 mm 0.00 in0.0 mm 0.01 in0.3 mm
12:15 PM 51.6°F10.9°C 46.9°F8.3°C 84% Calm Calm -- 29.86 in1011.2 mb 0.00 in0.0 mm 0.00 in0.0 mm 0.01 in0.3 mm
12:20 PM 51.5°F10.8°C 47.1°F8.4°C 85% 2.0 mph E3.2 kmh E -- 29.86 in1011.2 mb 0.00 in0.0 mm 0.00 in0.0 mm 0.01 in0.3 mm
12:25 PM 51.3°F10.7°C 46.9°F8.3°C 85% 2.0 mph ENE3.2 kmh ENE -- 29.86 in1011.2 mb 0.00 in0.0 mm 0.00 in0.0 mm 0.01 in0.3 mm
12:30 PM 51.3°F10.7°C 46.9°F8.3°C 85% 2.0 mph ENE3.2 kmh ENE 4.0 mph6.4 kmh 29.86 in1011.2 mb 0.00 in0.0 mm 0.00 in0.0 mm 0.01 in0.3 mm
12:35 PM 51.4°F10.8°C 47.5°F8.6°C 86% 4.0 mph NE6.4 kmh NE -- 29.86 in1011.2 mb 0.00 in0.0 mm 0.00 in0.0 mm 0.01 in0.3 mm
12:40 PM 51.4°F10.8°C 47.7°F8.7°C 87% 2.0 mph NE3.2 kmh NE -- 29.85 in1010.8 mb 0.00 in0.0 mm 0.00 in0.0 mm 0.01 in0.3 mm
12:45 PM 51.6°F10.9°C 47.8°F8.8°C 87% 1.0 mph NE1.6 kmh NE -- 29.86 in1011.2 mb 0.00 in0.0 mm 0.00 in0.0 mm 0.01 in0.3 mm
12:50 PM 51.7°F10.9°C 47.8°F8.8°C 87% 2.0 mph NE3.2 kmh NE -- 29.85 in1010.8 mb 0.00 in0.0 mm 0.00 in0.0 mm 0.01 in0.3 mm
12:55 PM 51.7°F10.9°C 47.5°F8.6°C 86% 1.0 mph NE1.6 kmh NE 3.0 mph4.8 kmh 29.85 in1010.8 mb 0.00 in0.0 mm 0.00 in0.0 mm 0.01 in0.3 mm
01:00 PM 51.7°F10.9°C 47.5°F8.6°C 86% 1.0 mph NE1.6 kmh NE -- 29.85 in1010.8 mb 0.00 in0.0 mm 0.00 in0.0 mm 0.01 in0.3 mm
01:05 PM 51.7°F10.9°C 47.5°F8.6°C 86% 1.0 mph NE1.6 kmh NE -- 29.85 in1010.8 mb 0.00 in0.0 mm 0.00 in0.0 mm 0.01 in0.3 mm
01:10 PM 51.7°F10.9°C 47.5°F8.6°C 86% 2.0 mph NE3.2 kmh NE -- 29.85 in1010.8 mb 0.00 in0.0 mm 0.00 in0.0 mm 0.01 in0.3 mm
01:15 PM 51.6°F10.9°C 47.3°F8.5°C 85% 3.0 mph NE4.8 kmh NE -- 29.85 in1010.8 mb 0.00 in0.0 mm 0.00 in0.0 mm 0.01 in0.3 mm
01:20 PM 51.5°F10.8°C 47.5°F8.6°C 86% 3.0 mph NE4.8 kmh NE 4.0 mph6.4 kmh 29.85 in1010.8 mb 0.00 in0.0 mm 0.00 in0.0 mm 0.01 in0.3 mm
01:25 PM 51.4°F10.8°C 47.5°F8.6°C 86% 3.0 mph NE4.8 kmh NE -- 29.85 in1010.8 mb 0.00 in0.0 mm 0.00 in0.0 mm 0.01 in0.3 mm
01:30 PM 51.4°F10.8°C 47.5°F8.6°C 86% 3.0 mph NE4.8 kmh NE -- 29.85 in1010.8 mb 0.00 in0.0 mm 0.00 in0.0 mm 0.01 in0.3 mm
01:35 PM 51.7°F10.9°C 47.8°F8.8°C 87% 2.0 mph NE3.2 kmh NE -- 29.85 in1010.8 mb 0.00 in0.0 mm 0.00 in0.0 mm 0.01 in0.3 mm
01:40 PM 51.8°F11.0°C 47.7°F8.7°C 86% Calm Calm -- 29.85 in1010.8 mb 0.00 in0.0 mm 0.00 in0.0 mm 0.01 in0.3 mm
01:45 PM 52.0°F11.1°C 48.2°F9.0°C 87% Calm Calm 4.0 mph6.4 kmh 29.85 in1010.8 mb 0.00 in0.0 mm 0.00 in0.0 mm 0.01 in0.3 mm
01:50 PM 52.2°F11.2°C 48.4°F9.1°C 87% Calm Calm -- 29.85 in1010.8 mb 0.00 in0.0 mm 0.00 in0.0 mm 0.01 in0.3 mm
01:55 PM 52.3°F11.3°C 48.2°F9.0°C 86% 1.0 mph NE1.6 kmh NE -- 29.84 in1010.5 mb 0.00 in0.0 mm 0.00 in0.0 mm 0.01 in0.3 mm
02:00 PM 52.4°F11.3°C 48.2°F9.0°C 86% Calm Calm -- 29.84 in1010.5 mb 0.00 in0.0 mm 0.00 in0.0 mm 0.01 in0.3 mm
02:05 PM 52.5°F11.4°C 48.2°F9.0°C 85% Calm Calm -- 29.84 in1010.5 mb 0.00 in0.0 mm 0.00 in0.0 mm 0.01 in0.3 mm
02:10 PM 52.4°F11.3°C 48.0°F8.9°C 85% Calm Calm 2.0 mph3.2 kmh 29.84 in1010.5 mb 0.00 in0.0 mm 0.00 in0.0 mm 0.01 in0.3 mm
02:15 PM 52.4°F11.3°C 48.0°F8.9°C 85% Calm Calm -- 29.84 in1010.5 mb 0.00 in0.0 mm 0.00 in0.0 mm 0.01 in0.3 mm
02:20 PM 52.6°F11.4°C 48.2°F9.0°C 85% Calm Calm -- 29.84 in1010.5 mb 0.00 in0.0 mm 0.00 in0.0 mm 0.01 in0.3 mm
02:25 PM 52.7°F11.5°C 48.4°F9.1°C 85% Calm Calm -- 29.84 in1010.5 mb 0.00 in0.0 mm 0.00 in0.0 mm 0.01 in0.3 mm
02:30 PM 52.6°F11.4°C 48.2°F9.0°C 85% 1.0 mph NE1.6 kmh NE -- 29.84 in1010.5 mb 0.00 in0.0 mm 0.00 in0.0 mm 0.01 in0.3 mm
02:35 PM 52.6°F11.4°C 48.2°F9.0°C 85% 1.0 mph NE1.6 kmh NE 2.0 mph3.2 kmh 29.84 in1010.5 mb 0.00 in0.0 mm 0.00 in0.0 mm 0.01 in0.3 mm
02:40 PM 52.5°F11.4°C 48.2°F9.0°C 85% Calm Calm -- 29.84 in1010.5 mb 0.00 in0.0 mm 0.00 in0.0 mm 0.01 in0.3 mm
02:45 PM 52.3°F11.3°C 48.0°F8.9°C 85% Calm Calm -- 29.83 in1010.2 mb 0.00 in0.0 mm 0.00 in0.0 mm 0.01 in0.3 mm
02:50 PM 52.2°F11.2°C 48.0°F8.9°C 86% 2.0 mph NE3.2 kmh NE -- 29.84 in1010.5 mb 0.00 in0.0 mm 0.00 in0.0 mm 0.01 in0.3 mm
02:55 PM 52.1°F11.2°C 48.0°F8.9°C 86% Calm Calm -- 29.83 in1010.2 mb 0.00 in0.0 mm 0.00 in0.0 mm 0.01 in0.3 mm
03:00 PM 52.1°F11.2°C 48.0°F8.9°C 86% Calm Calm 3.0 mph4.8 kmh 29.84 in1010.5 mb 0.00 in0.0 mm 0.00 in0.0 mm 0.01 in0.3 mm
03:05 PM 52.3°F11.3°C 48.2°F9.0°C 86% Calm Calm -- 29.83 in1010.2 mb 0.00 in0.0 mm 0.00 in0.0 mm 0.01 in0.3 mm
03:10 PM 52.5°F11.4°C 48.2°F9.0°C 85% Calm Calm -- 29.83 in1010.2 mb 0.00 in0.0 mm 0.00 in0.0 mm 0.01 in0.3 mm
03:15 PM 52.6°F11.4°C 48.2°F9.0°C 85% Calm Calm -- 29.83 in1010.2 mb 0.00 in0.0 mm 0.00 in0.0 mm 0.01 in0.3 mm
03:20 PM 53.2°F11.8°C 48.6°F9.2°C 84% Calm Calm -- 29.83 in1010.2 mb 0.00 in0.0 mm 0.00 in0.0 mm 0.01 in0.3 mm
03:25 PM 53.0°F11.7°C 48.0°F8.9°C 83% Calm Calm 1.0 mph1.6 kmh 29.83 in1010.2 mb 0.00 in0.0 mm 0.00 in0.0 mm 0.01 in0.3 mm
03:30 PM 52.4°F11.3°C 46.9°F8.3°C 82% 1.0 mph NE1.6 kmh NE -- 29.83 in1010.2 mb 0.00 in0.0 mm 0.00 in0.0 mm 0.01 in0.3 mm
03:35 PM 50.9°F10.5°C 45.9°F7.7°C 83% 1.0 mph NE1.6 kmh NE -- 29.83 in1010.2 mb 0.00 in0.0 mm 0.00 in0.0 mm 0.01 in0.3 mm
03:40 PM 50.0°F10.0°C 46.0°F7.8°C 86% 1.0 mph NNE1.6 kmh NNE -- 29.83 in1010.2 mb 0.00 in0.0 mm 0.00 in0.0 mm 0.01 in0.3 mm
03:45 PM 49.5°F9.7°C 45.7°F7.6°C 87% 3.0 mph NNE4.8 kmh NNE -- 29.83 in1010.2 mb 0.00 in0.0 mm 0.00 in0.0 mm 0.01 in0.3 mm
03:50 PM 49.3°F9.6°C 45.9°F7.7°C 88% 1.0 mph NNE1.6 kmh NNE 3.0 mph4.8 kmh 29.83 in1010.2 mb 0.00 in0.0 mm 0.00 in0.0 mm 0.01 in0.3 mm
03:55 PM 49.1°F9.5°C 46.0°F7.8°C 89% 1.0 mph WNW1.6 kmh WNW -- 29.83 in1010.2 mb 0.00 in0.0 mm 0.00 in0.0 mm 0.01 in0.3 mm
04:00 PM 48.8°F9.3°C 45.7°F7.6°C 89% 3.0 mph WNW4.8 kmh WNW -- 29.82 in1009.8 mb 0.00 in0.0 mm 0.00 in0.0 mm 0.01 in0.3 mm
04:05 PM 48.6°F9.2°C 45.7°F7.6°C 90% 3.0 mph W4.8 kmh W -- 29.82 in1009.8 mb 0.00 in0.0 mm 0.00 in0.0 mm 0.01 in0.3 mm
04:10 PM 48.4°F9.1°C 45.5°F7.5°C 90% 4.0 mph W6.4 kmh W -- 29.82 in1009.8 mb 0.00 in0.0 mm 0.00 in0.0 mm 0.01 in0.3 mm
04:15 PM 48.1°F8.9°C 45.1°F7.3°C 90% 5.0 mph WSW8.0 kmh WSW 5.0 mph8.0 kmh 29.82 in1009.8 mb 0.00 in0.0 mm 0.00 in0.0 mm 0.01 in0.3 mm
04:20 PM 47.8°F8.8°C 45.3°F7.4°C 91% 4.0 mph WSW6.4 kmh WSW -- 29.82 in1009.8 mb 0.00 in0.0 mm 0.00 in0.0 mm 0.01 in0.3 mm
04:25 PM 47.6°F8.7°C 45.0°F7.2°C 90% 4.0 mph WSW6.4 kmh WSW -- 29.82 in1009.8 mb 0.00 in0.0 mm 0.00 in0.0 mm 0.01 in0.3 mm
04:30 PM 47.3°F8.5°C 44.8°F7.1°C 91% 4.0 mph WSW6.4 kmh WSW -- 29.82 in1009.8 mb 0.00 in0.0 mm 0.00 in0.0 mm 0.01 in0.3 mm
04:35 PM 46.8°F8.2°C 44.2°F6.8°C 91% 5.0 mph WSW8.0 kmh WSW -- 29.82 in1009.8 mb 0.00 in0.0 mm 0.00 in0.0 mm 0.01 in0.3 mm
04:40 PM 46.9°F8.3°C 44.4°F6.9°C 91% 4.0 mph WSW6.4 kmh WSW 7.0 mph11.3 kmh 29.82 in1009.8 mb 0.00 in0.0 mm 0.00 in0.0 mm 0.01 in0.3 mm
04:45 PM 46.7°F8.2°C 44.2°F6.8°C 91% 5.0 mph WSW8.0 kmh WSW -- 29.82 in1009.8 mb 0.00 in0.0 mm 0.00 in0.0 mm 0.01 in0.3 mm
04:50 PM 46.4°F8.0°C 43.9°F6.6°C 91% 6.0 mph WSW9.7 kmh WSW -- 29.82 in1009.8 mb 0.00 in0.0 mm 0.00 in0.0 mm 0.01 in0.3 mm
04:55 PM 46.3°F7.9°C 43.7°F6.5°C 91% 4.0 mph WSW6.4 kmh WSW -- 29.82 in1009.8 mb 0.00 in0.0 mm 0.00 in0.0 mm 0.01 in0.3 mm
05:00 PM 46.2°F7.9°C 43.7°F6.5°C 91% 3.0 mph WSW4.8 kmh WSW -- 29.82 in1009.8 mb 0.00 in0.0 mm 0.00 in0.0 mm 0.01 in0.3 mm
05:05 PM 45.8°F7.7°C 43.3°F6.3°C 91% 5.0 mph SW8.0 kmh SW 6.0 mph9.7 kmh 29.82 in1009.8 mb 0.00 in0.0 mm 0.00 in0.0 mm 0.01 in0.3 mm
05:10 PM 45.7°F7.6°C 43.2°F6.2°C 91% 6.0 mph WSW9.7 kmh WSW -- 29.82 in1009.8 mb 0.00 in0.0 mm 0.00 in0.0 mm 0.01 in0.3 mm
05:15 PM 45.8°F7.7°C 43.3°F6.3°C 91% 5.0 mph WSW8.0 kmh WSW -- 29.82 in1009.8 mb 0.00 in0.0 mm 0.00 in0.0 mm 0.01 in0.3 mm
05:20 PM 45.5°F7.5°C 43.0°F6.1°C 91% 5.0 mph WSW8.0 kmh WSW -- 29.82 in1009.8 mb 0.00 in0.0 mm 0.00 in0.0 mm 0.01 in0.3 mm
05:25 PM 45.3°F7.4°C 42.8°F6.0°C 91% 3.0 mph WSW4.8 kmh WSW -- 29.82 in1009.8 mb 0.00 in0.0 mm 0.00 in0.0 mm 0.01 in0.3 mm
05:30 PM 45.3°F7.4°C 43.2°F6.2°C 92% 4.0 mph WSW6.4 kmh WSW 6.0 mph9.7 kmh 29.82 in1009.8 mb 0.00 in0.0 mm 0.00 in0.0 mm 0.01 in0.3 mm
05:35 PM 45.4°F7.4°C 42.8°F6.0°C 91% 5.0 mph SW8.0 kmh SW -- 29.81 in1009.5 mb 0.00 in0.0 mm 0.00 in0.0 mm 0.01 in0.3 mm
05:40 PM 45.5°F7.5°C 42.8°F6.0°C 90% 5.0 mph WSW8.0 kmh WSW -- 29.81 in1009.5 mb 0.00 in0.0 mm 0.00 in0.0 mm 0.01 in0.3 mm
05:45 PM 45.2°F7.3°C 42.4°F5.8°C 90% 7.0 mph WSW11.3 kmh WSW -- 29.81 in1009.5 mb 0.00 in0.0 mm 0.00 in0.0 mm 0.01 in0.3 mm
05:50 PM 45.3°F7.4°C 42.6°F5.9°C 90% 5.0 mph WSW8.0 kmh WSW -- 29.81 in1009.5 mb 0.00 in0.0 mm 0.00 in0.0 mm 0.01 in0.3 mm
05:55 PM 45.4°F7.4°C 42.6°F5.9°C 90% 4.0 mph WSW6.4 kmh WSW 8.0 mph12.9 kmh 29.81 in1009.5 mb 0.00 in0.0 mm 0.00 in0.0 mm 0.01 in0.3 mm
06:00 PM 45.1°F7.3°C 42.1°F5.6°C 89% 4.0 mph WSW6.4 kmh WSW -- 29.81 in1009.5 mb 0.00 in0.0 mm 0.00 in0.0 mm 0.01 in0.3 mm
06:05 PM 45.0°F7.2°C 41.9°F5.5°C 89% 5.0 mph WSW8.0 kmh WSW -- 29.82 in1009.8 mb 0.00 in0.0 mm 0.00 in0.0 mm 0.01 in0.3 mm
06:10 PM 44.7°F7.1°C 41.7°F5.4°C 89% 5.0 mph WSW8.0 kmh WSW -- 29.81 in1009.5 mb 0.00 in0.0 mm 0.00 in0.0 mm 0.01 in0.3 mm
06:15 PM 44.7°F7.1°C 41.7°F5.4°C 89% 4.0 mph WSW6.4 kmh WSW -- 29.81 in1009.5 mb 0.00 in0.0 mm 0.00 in0.0 mm 0.01 in0.3 mm
06:20 PM 44.5°F6.9°C 41.4°F5.2°C 89% 5.0 mph WSW8.0 kmh WSW 7.0 mph11.3 kmh 29.81 in1009.5 mb 0.00 in0.0 mm 0.00 in0.0 mm 0.01 in0.3 mm
06:25 PM 44.5°F6.9°C 41.4°F5.2°C 89% 4.0 mph WSW6.4 kmh WSW -- 29.81 in1009.5 mb 0.00 in0.0 mm 0.00 in0.0 mm 0.01 in0.3 mm
06:30 PM 44.6°F7.0°C 41.5°F5.3°C 89% 4.0 mph WSW6.4 kmh WSW -- 29.81 in1009.5 mb 0.00 in0.0 mm 0.00 in0.0 mm 0.01 in0.3 mm
06:35 PM 44.5°F6.9°C 41.4°F5.2°C 89% 5.0 mph SW8.0 kmh SW -- 29.81 in1009.5 mb 0.00 in0.0 mm 0.00 in0.0 mm 0.01 in0.3 mm
06:40 PM 44.6°F7.0°C 41.5°F5.3°C 89% 4.0 mph WSW6.4 kmh WSW -- 29.81 in1009.5 mb 0.00 in0.0 mm 0.00 in0.0 mm 0.01 in0.3 mm
06:45 PM 44.8°F7.1°C 41.4°F5.2°C 88% 4.0 mph WSW6.4 kmh WSW 7.0 mph11.3 kmh 29.81 in1009.5 mb 0.00 in0.0 mm 0.00 in0.0 mm 0.01 in0.3 mm
06:50 PM 44.5°F6.9°C 41.2°F5.1°C 88% 5.0 mph WSW8.0 kmh WSW -- 29.81 in1009.5 mb 0.00 in0.0 mm 0.00 in0.0 mm 0.01 in0.3 mm
06:55 PM 44.4°F6.9°C 41.2°F5.1°C 88% 6.0 mph WSW9.7 kmh WSW -- 29.81 in1009.5 mb 0.00 in0.0 mm 0.00 in0.0 mm 0.01 in0.3 mm
07:00 PM 44.8°F7.1°C 41.4°F5.2°C 88% 5.0 mph WSW8.0 kmh WSW -- 29.81 in1009.5 mb 0.00 in0.0 mm 0.00 in0.0 mm 0.01 in0.3 mm
07:05 PM 45.0°F7.2°C 41.4°F5.2°C 87% 7.0 mph WSW11.3 kmh WSW -- 29.81 in1009.5 mb 0.00 in0.0 mm 0.00 in0.0 mm 0.01 in0.3 mm
07:10 PM 44.9°F7.2°C 41.0°F5.0°C 86% 5.0 mph WSW8.0 kmh WSW 7.0 mph11.3 kmh 29.81 in1009.5 mb 0.00 in0.0 mm 0.00 in0.0 mm 0.01 in0.3 mm
07:15 PM 44.8°F7.1°C 41.2°F5.1°C 87% 4.0 mph WSW6.4 kmh WSW -- 29.81 in1009.5 mb 0.00 in0.0 mm 0.00 in0.0 mm 0.01 in0.3 mm
07:20 PM 44.4°F6.9°C 40.8°F4.9°C 87% 7.0 mph WSW11.3 kmh WSW -- 29.81 in1009.5 mb 0.00 in0.0 mm 0.00 in0.0 mm 0.01 in0.3 mm
07:25 PM 44.7°F7.1°C 41.2°F5.1°C 87% 5.0 mph WSW8.0 kmh WSW -- 29.81 in1009.5 mb 0.00 in0.0 mm 0.00 in0.0 mm 0.01 in0.3 mm
07:30 PM 44.7°F7.1°C 40.8°F4.9°C 86% 6.0 mph WSW9.7 kmh WSW -- 29.81 in1009.5 mb 0.00 in0.0 mm 0.00 in0.0 mm 0.01 in0.3 mm
07:35 PM 44.4°F6.9°C 40.5°F4.7°C 86% 5.0 mph WSW8.0 kmh WSW 7.0 mph11.3 kmh 29.81 in1009.5 mb 0.00 in0.0 mm 0.00 in0.0 mm 0.01 in0.3 mm
07:40 PM 44.5°F6.9°C 40.8°F4.9°C 87% 3.0 mph WSW4.8 kmh WSW -- 29.81 in1009.5 mb 0.00 in0.0 mm 0.00 in0.0 mm 0.01 in0.3 mm
07:45 PM 44.5°F6.9°C 40.5°F4.7°C 86% 5.0 mph WSW8.0 kmh WSW -- 29.81 in1009.5 mb 0.00 in0.0 mm 0.00 in0.0 mm 0.01 in0.3 mm
07:50 PM 44.4°F6.9°C 40.5°F4.7°C 86% 6.0 mph WSW9.7 kmh WSW -- 29.81 in1009.5 mb 0.00 in0.0 mm 0.00 in0.0 mm 0.01 in0.3 mm
07:55 PM 44.1°F6.7°C 40.5°F4.7°C 87% 6.0 mph WSW9.7 kmh WSW -- 29.81 in1009.5 mb 0.00 in0.0 mm 0.00 in0.0 mm 0.01 in0.3 mm
08:00 PM 44.0°F6.7°C 40.8°F4.9°C 88% 5.0 mph W8.0 kmh W 7.0 mph11.3 kmh 29.81 in1009.5 mb 0.00 in0.0 mm 0.00 in0.0 mm 0.01 in0.3 mm
08:05 PM 44.2°F6.8°C 40.6°F4.8°C 87% 6.0 mph W9.7 kmh W -- 29.81 in1009.5 mb 0.00 in0.0 mm 0.00 in0.0 mm 0.01 in0.3 mm
08:10 PM 43.8°F6.6°C 39.9°F4.4°C 86% 6.0 mph WSW9.7 kmh WSW -- 29.81 in1009.5 mb 0.00 in0.0 mm 0.00 in0.0 mm 0.01 in0.3 mm
08:15 PM 43.6°F6.4°C 39.9°F4.4°C 87% 5.0 mph WSW8.0 kmh WSW -- 29.81 in1009.5 mb 0.00 in0.0 mm 0.00 in0.0 mm 0.01 in0.3 mm
08:20 PM 43.6°F6.4°C 39.9°F4.4°C 87% 5.0 mph WSW8.0 kmh WSW -- 29.81 in1009.5 mb 0.00 in0.0 mm 0.00 in0.0 mm 0.01 in0.3 mm
08:25 PM 43.6°F6.4°C 39.9°F4.4°C 87% 6.0 mph WSW9.7 kmh WSW 7.0 mph11.3 kmh 29.81 in1009.5 mb 0.00 in0.0 mm 0.00 in0.0 mm 0.01 in0.3 mm
08:30 PM 43.6°F6.4°C 39.9°F4.4°C 87% 5.0 mph WSW8.0 kmh WSW -- 29.81 in1009.5 mb 0.00 in0.0 mm 0.00 in0.0 mm 0.01 in0.3 mm
08:35 PM 43.5°F6.4°C 39.9°F4.4°C 87% 5.0 mph WSW8.0 kmh WSW -- 29.81 in1009.5 mb 0.00 in0.0 mm 0.00 in0.0 mm 0.01 in0.3 mm
08:40 PM 43.5°F6.4°C 40.3°F4.6°C 88% 7.0 mph WSW11.3 kmh WSW -- 29.81 in1009.5 mb 0.00 in0.0 mm 0.00 in0.0 mm 0.01 in0.3 mm
08:45 PM 43.7°F6.5°C 40.1°F4.5°C 87% 5.0 mph WSW8.0 kmh WSW -- 29.81 in1009.5 mb 0.00 in0.0 mm 0.00 in0.0 mm 0.01 in0.3 mm
08:50 PM 43.6°F6.4°C 39.9°F4.4°C 87% 5.0 mph SW8.0 kmh SW 7.0 mph11.3 kmh 29.81 in1009.5 mb 0.00 in0.0 mm 0.00 in0.0 mm 0.01 in0.3 mm
08:55 PM 43.3°F6.3°C 40.1°F4.5°C 88% 6.0 mph WSW9.7 kmh WSW -- 29.81 in1009.5 mb 0.00 in0.0 mm 0.00 in0.0 mm 0.01 in0.3 mm
09:00 PM 43.7°F6.5°C 40.5°F4.7°C 88% 4.0 mph W6.4 kmh W -- 29.81 in1009.5 mb 0.00 in0.0 mm 0.00 in0.0 mm 0.01 in0.3 mm
09:05 PM 43.6°F6.4°C 39.9°F4.4°C 87% 3.0 mph SW4.8 kmh SW -- 29.81 in1009.5 mb 0.00 in0.0 mm 0.00 in0.0 mm 0.01 in0.3 mm
09:10 PM 43.4°F6.3°C 40.1°F4.5°C 88% 7.0 mph WSW11.3 kmh WSW -- 29.81 in1009.5 mb 0.00 in0.0 mm 0.00 in0.0 mm 0.01 in0.3 mm
09:15 PM 43.7°F6.5°C 40.1°F4.5°C 87% 4.0 mph WSW6.4 kmh WSW 8.0 mph12.9 kmh 29.81 in1009.5 mb 0.00 in0.0 mm 0.00 in0.0 mm 0.01 in0.3 mm
09:20 PM 43.5°F6.4°C 39.9°F4.4°C 87% 6.0 mph WSW9.7 kmh WSW -- 29.81 in1009.5 mb 0.00 in0.0 mm 0.00 in0.0 mm 0.01 in0.3 mm
09:25 PM 43.2°F6.2°C 39.6°F4.2°C 87% 6.0 mph WSW9.7 kmh WSW -- 29.81 in1009.5 mb 0.00 in0.0 mm 0.00 in0.0 mm 0.01 in0.3 mm
09:30 PM 43.2°F6.2°C 39.9°F4.4°C 88% 4.0 mph WSW6.4 kmh WSW -- 29.80 in1009.1 mb 0.00 in0.0 mm 0.00 in0.0 mm 0.01 in0.3 mm
09:35 PM 43.3°F6.3°C 40.1°F4.5°C 88% 4.0 mph WSW6.4 kmh WSW -- 29.80 in1009.1 mb 0.00 in0.0 mm 0.00 in0.0 mm 0.01 in0.3 mm
09:40 PM 43.2°F6.2°C 39.9°F4.4°C 88% 6.0 mph WSW9.7 kmh WSW 7.0 mph11.3 kmh 29.80 in1009.1 mb 0.00 in0.0 mm 0.00 in0.0 mm 0.01 in0.3 mm
09:45 PM 43.3°F6.3°C 39.7°F4.3°C 87% 4.0 mph WSW6.4 kmh WSW -- 29.80 in1009.1 mb 0.00 in0.0 mm 0.00 in0.0 mm 0.01 in0.3 mm
09:50 PM 43.1°F6.2°C 39.9°F4.4°C 88% 5.0 mph WSW8.0 kmh WSW -- 29.80 in1009.1 mb 0.00 in0.0 mm 0.00 in0.0 mm 0.01 in0.3 mm
09:55 PM 43.0°F6.1°C 39.7°F4.3°C 88% 6.0 mph WSW9.7 kmh WSW -- 29.80 in1009.1 mb 0.00 in0.0 mm 0.00 in0.0 mm 0.01 in0.3 mm
10:00 PM 43.2°F6.2°C 39.9°F4.4°C 88% 5.0 mph WSW8.0 kmh WSW -- 29.80 in1009.1 mb 0.00 in0.0 mm 0.00 in0.0 mm 0.01 in0.3 mm
10:05 PM 43.3°F6.3°C 39.7°F4.3°C 87% 6.0 mph WSW9.7 kmh WSW 7.0 mph11.3 kmh 29.80 in1009.1 mb 0.00 in0.0 mm 0.00 in0.0 mm 0.01 in0.3 mm
10:10 PM 43.2°F6.2°C 39.9°F4.4°C 88% 4.0 mph WSW6.4 kmh WSW -- 29.80 in1009.1 mb 0.00 in0.0 mm 0.00 in0.0 mm 0.01 in0.3 mm
10:15 PM 43.4°F6.3°C 40.1°F4.5°C 88% 4.0 mph WSW6.4 kmh WSW -- 29.80 in1009.1 mb 0.00 in0.0 mm 0.00 in0.0 mm 0.01 in0.3 mm
10:20 PM 43.4°F6.3°C 39.7°F4.3°C 87% 6.0 mph WSW9.7 kmh WSW -- 29.80 in1009.1 mb 0.00 in0.0 mm 0.00 in0.0 mm 0.01 in0.3 mm
10:25 PM 43.7°F6.5°C 40.5°F4.7°C 88% 2.0 mph W3.2 kmh W -- 29.80 in1009.1 mb 0.00 in0.0 mm 0.00 in0.0 mm 0.01 in0.3 mm
10:30 PM 44.2°F6.8°C 40.6°F4.8°C 87% 4.0 mph W6.4 kmh W 7.0 mph11.3 kmh 29.80 in1009.1 mb 0.00 in0.0 mm 0.00 in0.0 mm 0.01 in0.3 mm
10:35 PM 44.5°F6.9°C 40.5°F4.7°C 86% 1.0 mph W1.6 kmh W -- 29.80 in1009.1 mb 0.00 in0.0 mm 0.00 in0.0 mm 0.01 in0.3 mm
10:40 PM 44.0°F6.7°C 39.9°F4.4°C 85% 2.0 mph WSW3.2 kmh WSW -- 29.80 in1009.1 mb 0.00 in0.0 mm 0.00 in0.0 mm 0.01 in0.3 mm
10:45 PM 43.3°F6.3°C 39.4°F4.1°C 86% 3.0 mph SW4.8 kmh SW -- 29.80 in1009.1 mb 0.00 in0.0 mm 0.00 in0.0 mm 0.01 in0.3 mm
10:50 PM 43.2°F6.2°C 39.6°F4.2°C 87% 3.0 mph W4.8 kmh W -- 29.80 in1009.1 mb 0.00 in0.0 mm 0.00 in0.0 mm 0.01 in0.3 mm
10:55 PM 44.0°F6.7°C 41.0°F5.0°C 89% 3.0 mph WSW4.8 kmh WSW 7.0 mph11.3 kmh 29.80 in1009.1 mb 0.00 in0.0 mm 0.00 in0.0 mm 0.01 in0.3 mm
11:00 PM 44.3°F6.8°C 40.6°F4.8°C 87% 4.0 mph W6.4 kmh W -- 29.80 in1009.1 mb 0.00 in0.0 mm 0.00 in0.0 mm 0.01 in0.3 mm
11:05 PM 44.2°F6.8°C 40.3°F4.6°C 86% 1.0 mph W1.6 kmh W -- 29.80 in1009.1 mb 0.00 in0.0 mm 0.00 in0.0 mm 0.01 in0.3 mm
11:10 PM 43.3°F6.3°C 39.4°F4.1°C 86% 3.0 mph WSW4.8 kmh WSW -- 29.80 in1009.1 mb 0.00 in0.0 mm 0.00 in0.0 mm 0.01 in0.3 mm
11:15 PM 42.9°F6.1°C 39.4°F4.1°C 87% 2.0 mph WSW3.2 kmh WSW -- 29.80 in1009.1 mb 0.00 in0.0 mm 0.00 in0.0 mm 0.01 in0.3 mm
11:20 PM 42.5°F5.8°C 38.8°F3.8°C 87% 4.0 mph WSW6.4 kmh WSW 5.0 mph8.0 kmh 29.80 in1009.1 mb 0.00 in0.0 mm 0.00 in0.0 mm 0.01 in0.3 mm
11:25 PM 42.2°F5.7°C 39.0°F3.9°C 88% 5.0 mph WSW8.0 kmh WSW -- 29.80 in1009.1 mb 0.00 in0.0 mm 0.00 in0.0 mm 0.01 in0.3 mm
11:30 PM 42.7°F5.9°C 39.6°F4.2°C 89% 3.0 mph WSW4.8 kmh WSW -- 29.80 in1009.1 mb 0.00 in0.0 mm 0.00 in0.0 mm 0.01 in0.3 mm
11:35 PM 42.8°F6.0°C 39.6°F4.2°C 88% 2.0 mph WSW3.2 kmh WSW -- 29.80 in1009.1 mb 0.00 in0.0 mm 0.00 in0.0 mm 0.01 in0.3 mm
11:40 PM 42.5°F5.8°C 39.2°F4.0°C 88% 3.0 mph SW4.8 kmh SW -- 29.80 in1009.1 mb 0.00 in0.0 mm 0.00 in0.0 mm 0.01 in0.3 mm
11:45 PM 42.6°F5.9°C 39.6°F4.2°C 89% 3.0 mph WSW4.8 kmh WSW 5.0 mph8.0 kmh 29.80 in1009.1 mb 0.00 in0.0 mm 0.00 in0.0 mm 0.01 in0.3 mm
11:50 PM 42.7°F5.9°C 39.4°F4.1°C 88% 5.0 mph WSW8.0 kmh WSW -- 29.80 in1009.1 mb 0.00 in0.0 mm 0.00 in0.0 mm 0.01 in0.3 mm
11:55 PM 42.3°F5.7°C 39.0°F3.9°C 88% 4.0 mph WSW6.4 kmh WSW -- 29.80 in1009.1 mb 0.00 in0.0 mm 0.00 in0.0 mm 0.01 in0.3 mm